Time;durP1;ratioP1;P1;durP2;ratioP2;P2;SDS_P1;SDS_P2;PMS_P1;PMS_P2;Temp;Humidity;BMP_temperature;BMP_pressure;BME280_temperature;BME280_humidity;BME280_pressure;Samples;Min_cycle;Max_cycle;Signal;HPM_P1;HPM_P2
2022/12/02 00:01:02;;;;;;;17.27;12.73;;;13.00;72.40;;;;;;4994587;28;20044;-77
2022/12/02 00:03:29;;;;;;;19.17;13.38;;;13.00;72.40;;;;;;4994960;28;20129;-78
2022/12/02 00:05:55;;;;;;;20.70;13.60;;;13.00;72.40;;;;;;4977402;28;20046;-78
2022/12/02 00:08:23;;;;;;;17.50;13.18;;;13.00;72.40;;;;;;4994708;28;20050;-79
2022/12/02 00:10:51;;;;;;;16.80;13.13;;;13.00;72.40;;;;;;4994871;28;20046;-79
2022/12/02 00:13:40;;;;;;;17.30;12.43;;;12.90;72.30;;;;;;4994343;28;20081;-77
2022/12/02 00:16:21;;;;;;;18.42;13.05;;;12.90;72.40;;;;;;4997834;28;20054;-79
2022/12/02 00:18:48;;;;;;;19.95;13.65;;;12.90;72.30;;;;;;4998350;28;20047;-80
2022/12/02 00:21:14;;;;;;;17.83;12.63;;;12.90;72.40;;;;;;4997831;28;20130;-78
2022/12/02 00:23:39;;;;;;;16.85;12.25;;;12.90;72.40;;;;;;4998857;28;20146;-80
2022/12/02 00:26:05;;;;;;;21.83;13.48;;;12.90;72.40;;;;;;4998187;28;20039;-78
2022/12/02 00:28:31;;;;;;;17.33;11.75;;;12.90;72.40;;;;;;4981362;28;20046;-78
2022/12/02 00:30:57;;;;;;;18.35;12.82;;;12.90;72.50;;;;;;4997934;28;20054;-80
2022/12/02 00:33:22;;;;;;;17.52;12.77;;;12.90;72.60;;;;;;4980835;28;20462;-79
2022/12/02 00:35:48;;;;;;;17.70;12.25;;;12.90;72.50;;;;;;4981270;28;20057;-79
2022/12/02 00:38:14;;;;;;;18.63;12.60;;;12.90;72.60;;;;;;4997786;28;20050;-78
2022/12/02 00:40:40;;;;;;;18.02;12.80;;;12.90;72.50;;;;;;4997910;28;20046;-79
2022/12/02 00:48:35;;;;;;;16.40;11.48;;;12.90;72.60;;;;;;4991474;28;20050;-79
2022/12/02 00:51:01;;;;;;;16.95;11.38;;;12.90;72.60;;;;;;4997401;28;20053;-79
2022/12/02 00:53:27;;;;;;;17.55;12.45;;;12.90;72.60;;;;;;4997925;28;20129;-79
2022/12/02 00:55:53;;;;;;;16.40;12.32;;;12.90;72.60;;;;;;4980690;28;20082;-80
2022/12/02 00:58:19;;;;;;;16.20;12.00;;;12.90;72.60;;;;;;4997601;28;20151;-80
2022/12/02 01:00:44;;;;;;;17.17;12.18;;;12.90;72.60;;;;;;4997719;28;20061;-79
2022/12/02 01:03:11;;;;;;;18.73;12.07;;;12.90;72.60;;;;;;4964254;28;20057;-78
2022/12/02 01:05:37;;;;;;;15.77;11.50;;;12.90;72.60;;;;;;4997121;28;20042;-78
2022/12/02 01:08:02;;;;;;;14.18;10.98;;;12.80;72.50;;;;;;4979599;28;20061;-78
2022/12/02 01:10:28;;;;;;;15.95;11.50;;;12.90;72.60;;;;;;4997745;28;20129;-80
2022/12/02 01:12:54;;;;;;;16.25;11.70;;;12.90;72.60;;;;;;4997884;28;20100;-80
2022/12/02 01:15:20;;;;;;;16.33;11.75;;;12.90;72.60;;;;;;4996393;28;20068;-80
2022/12/02 03:30:20;;;;;;;30.48;16.83;;;11.40;61.00;;;;;;4769177;30;20060;-75
2022/12/02 03:32:46;;;;;;;32.72;18.67;;;11.50;61.40;;;;;;4771660;30;20052;-75
2022/12/02 03:35:12;;;;;;;35.92;17.70;;;11.50;61.50;;;;;;4771728;30;20043;-74
2022/12/02 03:37:40;;;;;;;31.02;17.77;;;11.60;61.60;;;;;;4755757;30;20487;-76
2022/12/02 03:40:07;;;;;;;28.42;16.85;;;11.60;61.60;;;;;;4763366;30;20044;-74
2022/12/02 03:42:33;;;;;;;27.77;16.70;;;11.70;61.70;;;;;;4745647;30;20049;-76
2022/12/02 03:45:00;;;;;;;33.20;17.63;;;11.70;61.50;;;;;;4762287;30;20502;-75
2022/12/02 03:47:26;;;;;;;28.27;16.45;;;11.70;61.50;;;;;;4768160;30;20094;-77
2022/12/02 03:49:52;;;;;;;27.75;16.10;;;11.80;61.40;;;;;;4758183;30;20143;-79
2022/12/02 03:52:18;;;;;;;27.25;17.52;;;11.80;61.50;;;;;;4774962;30;20593;-76
2022/12/02 03:54:45;;;;;;;25.50;16.38;;;11.80;61.50;;;;;;4772859;30;20078;-78
2022/12/02 03:57:10;;;;;;;28.63;16.17;;;11.90;61.50;;;;;;4757286;30;20044;-75
2022/12/02 03:59:36;;;;;;;26.98;17.08;;;11.90;61.40;;;;;;4763918;30;20044;-82
2022/12/02 04:02:02;;;;;;;25.73;16.88;;;11.90;61.30;;;;;;4755609;30;20464;-74
2022/12/02 04:04:28;;;;;;;26.08;15.98;;;11.90;61.30;;;;;;4757108;30;20371;-73
2022/12/02 04:06:53;;;;;;;26.20;16.70;;;12.00;61.30;;;;;;4769104;30;20059;-75
2022/12/02 04:09:19;;;;;;;29.88;16.17;;;12.00;61.30;;;;;;4759661;30;20095;-74
2022/12/02 04:11:45;;;;;;;27.35;17.67;;;12.00;61.30;;;;;;4774971;30;20127;-76
2022/12/02 04:14:11;;;;;;;28.05;16.48;;;12.00;61.30;;;;;;4784666;30;20512;-74
2022/12/02 04:16:37;;;;;;;27.83;15.65;;;12.00;61.30;;;;;;4758748;30;20452;-75
2022/12/02 04:19:02;;;;;;;26.77;17.27;;;12.00;61.30;;;;;;4774463;30;20067;-76
2022/12/02 04:21:28;;;;;;;28.85;16.98;;;12.00;61.20;;;;;;4773759;30;20468;-76
2022/12/02 04:23:54;;;;;;;30.52;17.40;;;12.00;61.20;;;;;;4758902;30;20100;-76
2022/12/02 04:26:20;;;;;;;28.63;16.58;;;12.00;61.20;;;;;;4770368;30;20134;-78
2022/12/02 04:28:46;;;;;;;29.25;16.42;;;12.00;61.20;;;;;;4740556;30;20056;-77
2022/12/02 04:31:14;;;;;;;28.77;16.35;;;12.00;61.20;;;;;;4756547;30;20129;-76
2022/12/02 04:33:40;;;;;;;32.30;17.45;;;12.00;61.20;;;;;;4770445;30;20051;-75
2022/12/02 04:36:06;;;;;;;28.88;18.38;;;12.00;61.30;;;;;;4785926;29;20051;-77
2022/12/02 04:38:32;;;;;;;33.58;17.10;;;12.10;61.40;;;;;;4792787;29;20058;-76
2022/12/02 04:40:57;;;;;;;28.05;16.70;;;12.10;61.40;;;;;;4792251;30;20333;-75
2022/12/02 04:43:23;;;;;;;28.05;17.13;;;12.10;61.30;;;;;;4776531;30;20051;-75
2022/12/02 04:45:48;;;;;;;29.75;16.65;;;12.10;61.30;;;;;;4769277;30;20109;-77
2022/12/02 04:48:14;;;;;;;27.60;18.20;;;12.10;61.40;;;;;;4774854;30;20354;-76
2022/12/02 04:50:40;;;;;;;30.83;18.45;;;12.10;61.20;;;;;;4748838;30;20052;-77
2022/12/02 04:53:06;;;;;;;30.70;17.58;;;12.10;61.20;;;;;;4764904;30;20055;-76
2022/12/02 04:55:31;;;;;;;29.92;16.73;;;12.10;61.20;;;;;;4755667;30;20523;-75
2022/12/02 04:57:57;;;;;;;28.58;18.17;;;12.10;61.10;;;;;;4765801;30;20059;-75
2022/12/02 05:00:23;;;;;;;29.25;17.13;;;12.10;61.20;;;;;;4764846;30;20452;-76
2022/12/02 05:02:49;;;;;;;28.80;17.67;;;12.10;61.10;;;;;;4762807;30;20508;-79
2022/12/02 05:05:15;;;;;;;26.92;17.35;;;12.10;61.10;;;;;;4763862;30;20040;-75
2022/12/02 05:07:41;;;;;;;28.50;17.52;;;12.10;61.00;;;;;;4757473;30;20494;-77
2022/12/02 05:10:08;;;;;;;27.55;16.52;;;12.10;61.00;;;;;;4763433;30;20079;-76
2022/12/02 05:12:33;;;;;;;29.60;17.45;;;12.10;60.90;;;;;;4765803;30;20531;-74
2022/12/02 05:14:59;;;;;;;27.48;17.25;;;12.10;60.90;;;;;;4764251;30;20126;-76
2022/12/02 05:17:25;;;;;;;29.17;17.05;;;12.10;60.90;;;;;;4777790;30;20047;-74
2022/12/02 05:19:50;;;;;;;26.48;16.35;;;12.10;60.90;;;;;;4781480;30;20050;-79
2022/12/02 05:22:16;;;;;;;29.30;17.23;;;12.10;60.90;;;;;;4791648;30;20063;-71
2022/12/02 05:24:42;;;;;;;31.05;17.20;;;12.10;60.80;;;;;;4776299;30;20138;-73
2022/12/02 05:27:08;;;;;;;29.70;17.52;;;12.10;60.80;;;;;;4791168;29;20137;-70
2022/12/02 05:29:33;;;;;;;29.02;17.98;;;12.10;60.80;;;;;;4787720;30;20467;-71
2022/12/02 05:31:59;;;;;;;28.52;16.88;;;12.10;60.60;;;;;;4772049;30;20051;-69
2022/12/02 05:34:25;;;;;;;30.30;18.45;;;12.10;60.00;;;;;;4773436;30;20052;-77
2022/12/02 05:36:50;;;;;;;30.75;19.33;;;12.10;60.30;;;;;;4773427;30;20107;-75
2022/12/02 05:39:16;;;;;;;36.33;19.33;;;12.00;60.70;;;;;;4758135;30;20055;-71
2022/12/02 05:41:43;;;;;;;36.38;18.35;;;12.00;64.40;;;;;;4775316;30;20051;-72
2022/12/02 05:44:19;;;;;;;40.47;18.95;;;12.10;63.20;;;;;;4790484;30;20119;-77
2022/12/02 05:46:46;;;;;;;32.03;15.50;;;12.20;63.30;;;;;;4790748;29;20106;-70
2022/12/02 05:49:19;;;;;;;36.00;16.95;;;12.50;62.80;;;;;;4791365;29;20047;-76
2022/12/02 05:51:54;;;;;;;26.83;13.85;;;12.60;63.30;;;;;;4773199;30;20361;-79
2022/12/02 05:54:20;;;;;;;30.90;14.38;;;12.90;63.40;;;;;;4772765;30;20075;-75
2022/12/02 05:56:47;;;;;;;29.70;14.23;;;13.00;63.60;;;;;;4773407;30;20070;-75
2022/12/02 05:59:20;;;;;;;27.75;11.98;;;13.10;63.80;;;;;;4772974;30;20087;-75
2022/12/02 06:01:49;;;;;;;24.65;11.38;;;13.30;64.30;;;;;;4786218;30;20464;-76
2022/12/02 06:04:21;;;;;;;19.00;10.07;;;13.50;64.90;;;;;;4772360;30;20060;-76
2022/12/02 06:06:47;;;;;;;29.75;10.10;;;13.50;64.90;;;;;;4772541;30;20066;-75
2022/12/02 06:09:19;;;;;;;32.35;11.48;;;13.70;65.30;;;;;;4772773;30;20043;-77
2022/12/02 06:11:46;;;;;;;25.95;9.43;;;13.80;64.70;;;;;;4775029;30;20393;-75
2022/12/02 06:14:20;;;;;;;26.38;10.50;;;13.90;65.90;;;;;;4790396;29;20047;-78
2022/12/02 06:16:50;;;;;;;20.13;8.95;;;14.00;66.20;;;;;;4790254;30;20059;-74
2022/12/02 06:19:42;;;;;;;27.65;9.95;;;14.10;66.10;;;;;;4790275;30;20074;-75
2022/12/02 06:22:29;;;;;;;19.42;9.02;;;14.20;65.90;;;;;;4765786;30;20052;-77
2022/12/02 06:24:58;;;;;;;27.73;9.40;;;14.30;66.10;;;;;;4772231;30;20066;-77
2022/12/02 06:27:26;;;;;;;20.35;8.10;;;14.30;66.00;;;;;;4756037;30;20059;-75
2022/12/02 06:29:59;;;;;;;21.20;8.40;;;14.50;66.00;;;;;;4756623;30;20068;-75
2022/12/02 06:32:54;;;;;;;19.20;8.70;;;14.60;66.10;;;;;;4771258;30;20059;-77
2022/12/02 06:35:30;;;;;;;23.75;7.97;;;14.60;66.20;;;;;;4771260;30;20063;-77
2022/12/02 06:38:08;;;;;;;19.83;8.18;;;14.70;66.00;;;;;;4771924;30;20487;-77
2022/12/02 06:40:35;;;;;;;19.38;8.68;;;14.70;66.00;;;;;;4771076;30;20117;-78
2022/12/02 06:43:16;;;;;;;21.73;10.27;;;14.80;66.10;;;;;;4783283;30;20126;-76
2022/12/02 06:45:44;;;;;;;27.33;9.63;;;14.90;66.30;;;;;;4790031;30;20047;-77
2022/12/02 06:48:23;;;;;;;31.55;9.82;;;14.90;66.30;;;;;;4789892;30;20138;-74
2022/12/02 06:50:49;;;;;;;36.40;11.38;;;14.90;66.40;;;;;;4789851;30;20101;-78
2022/12/02 06:53:23;;;;;;;35.90;10.00;;;14.90;66.20;;;;;;4761345;30;20508;-76
2022/12/02 06:56:00;;;;;;;39.60;9.95;;;14.90;66.20;;;;;;4772044;30;20066;-77
2022/12/02 06:58:48;;;;;;;29.10;8.80;;;14.90;66.50;;;;;;4772327;30;20052;-75
2022/12/02 07:01:17;;;;;;;26.33;8.55;;;14.90;66.80;;;;;;4784512;30;20063;-75
2022/12/02 07:04:15;;;;;;;29.50;8.73;;;14.80;67.00;;;;;;4774266;30;20478;-74
2022/12/02 07:06:43;;;;;;;30.98;8.88;;;14.70;67.30;;;;;;4774479;30;20063;-76
2022/12/02 07:09:17;;;;;;;22.23;8.75;;;14.70;67.60;;;;;;4789020;30;20503;-76
2022/12/02 07:11:50;;;;;;;;;;;14.60;67.80;;;;;;4772215;30;20475;-73
2022/12/02 07:14:50;;;;;;;19.83;6.93;;;14.50;67.80;;;;;;4771867;30;19926;-75
2022/12/02 07:17:31;;;;;;;20.90;6.90;;;14.50;67.70;;;;;;4771819;30;20059;-74
2022/12/02 07:20:08;;;;;;;20.02;7.45;;;14.40;68.30;;;;;;4759208;30;20059;-75
2022/12/02 07:22:43;;;;;;;16.85;5.47;;;14.30;68.40;;;;;;4789731;29;20070;-73
2022/12/02 07:25:08;;;;;;;12.07;4.88;;;14.20;67.90;;;;;;4777744;30;20055;-74
2022/12/02 07:27:40;;;;;;;14.20;4.25;;;14.10;67.90;;;;;;4793283;30;20066;-77
2022/12/02 07:30:24;;;;;;;13.30;4.78;;;14.10;68.00;;;;;;4787931;30;20134;-72
2022/12/02 07:32:51;;;;;;;13.00;5.88;;;14.00;68.00;;;;;;4775208;30;20138;-73
2022/12/02 07:35:19;;;;;;;12.90;7.13;;;14.00;67.70;;;;;;4780553;30;20043;-74
2022/12/02 07:37:45;;;;;;;18.88;9.75;;;14.00;67.10;;;;;;4792785;30;20047;-74
2022/12/02 07:40:15;;;;;;;19.60;9.07;;;13.90;66.30;;;;;;4792572;30;20097;-75
2022/12/02 07:42:42;;;;;;;19.70;9.98;;;13.80;65.60;;;;;;4782024;30;20063;-75
2022/12/02 07:45:12;;;;;;;17.58;9.63;;;13.80;65.70;;;;;;4775050;30;20059;-75
2022/12/02 07:47:38;;;;;;;19.90;10.48;;;13.80;65.60;;;;;;4759212;30;20468;-72
2022/12/02 07:50:05;;;;;;;21.42;10.07;;;13.70;65.70;;;;;;4775077;30;20054;-73
2022/12/02 07:52:30;;;;;;;17.23;10.70;;;13.80;65.90;;;;;;4783140;30;20047;-73
2022/12/02 07:54:56;;;;;;;20.75;10.85;;;13.70;65.80;;;;;;4777254;30;20055;-76
2022/12/02 07:57:22;;;;;;;23.27;12.48;;;13.70;65.70;;;;;;4792769;30;20440;-73
2022/12/02 07:59:48;;;;;;;30.05;14.85;;;13.70;65.60;;;;;;4792694;29;20055;-75
2022/12/02 08:02:13;;;;;;;37.38;15.98;;;13.70;65.30;;;;;;4781899;30;20154;-76
2022/12/02 08:04:39;;;;;;;44.95;16.92;;;13.70;64.50;;;;;;4775077;30;20217;-75
2022/12/02 08:07:05;;;;;;;38.95;16.45;;;13.60;64.10;;;;;;4758818;30;20101;-75
2022/12/02 08:09:31;;;;;;;46.53;17.40;;;13.60;63.80;;;;;;4758973;30;20052;-76
2022/12/02 08:11:57;;;;;;;49.03;16.52;;;13.50;63.80;;;;;;4780566;30;20075;-76
2022/12/02 08:14:22;;;;;;;43.42;16.27;;;13.50;64.00;;;;;;4792339;30;20137;-76
2022/12/02 08:16:48;;;;;;;42.05;16.45;;;13.50;64.20;;;;;;4780189;30;20519;-77
2022/12/02 08:19:14;;;;;;;42.10;18.17;;;13.40;64.20;;;;;;4758687;30;20063;-77
2022/12/02 08:21:40;;;;;;;45.28;17.30;;;13.40;64.40;;;;;;4778795;30;20399;-77
2022/12/02 08:24:07;;;;;;;42.78;16.38;;;13.40;64.70;;;;;;4792366;30;20052;-76
2022/12/02 08:26:33;;;;;;;33.40;14.18;;;13.40;64.70;;;;;;4791866;29;20099;-74
2022/12/02 08:28:59;;;;;;;36.88;15.13;;;13.30;64.80;;;;;;4792927;30;20063;-75
2022/12/02 08:31:26;;;;;;;33.60;15.02;;;13.30;65.00;;;;;;4788182;30;20464;-78
2022/12/02 08:33:52;;;;;;;33.20;14.68;;;13.40;65.10;;;;;;4774034;30;20059;-77
2022/12/02 08:36:18;;;;;;;33.10;14.18;;;13.30;65.20;;;;;;4774854;30;20376;-75
2022/12/02 08:38:44;;;;;;;37.42;14.63;;;13.30;65.30;;;;;;4758798;30;20052;-76
2022/12/02 08:41:10;;;;;;;27.85;14.80;;;13.30;65.30;;;;;;4759250;30;20097;-78
2022/12/02 08:43:37;;;;;;;27.17;13.30;;;13.30;65.40;;;;;;4791652;30;20068;-76
2022/12/02 08:46:04;;;;;;;33.28;14.85;;;13.20;65.40;;;;;;4792071;30;20529;-75
2022/12/02 08:48:30;;;;;;;29.75;13.93;;;13.20;65.50;;;;;;4791881;30;20081;-77
2022/12/02 08:50:55;;;;;;;30.55;14.02;;;13.20;65.50;;;;;;4776146;29;20085;-75
2022/12/02 08:53:21;;;;;;;25.48;12.07;;;13.20;65.60;;;;;;4759048;30;20056;-75
2022/12/02 08:55:47;;;;;;;28.95;12.68;;;13.20;65.60;;;;;;4774295;30;20066;-78
2022/12/02 08:58:13;;;;;;;29.42;13.23;;;13.20;65.70;;;;;;4758625;30;20051;-76
2022/12/02 09:00:39;;;;;;;24.55;13.07;;;13.10;65.80;;;;;;4774038;30;20052;-76
2022/12/02 09:03:07;;;;;;;24.83;11.60;;;13.20;65.90;;;;;;4788118;30;20127;-77
2022/12/02 09:05:33;;;;;;;29.10;13.88;;;13.10;65.90;;;;;;4791772;29;20062;-75
2022/12/02 09:07:59;;;;;;;23.63;13.20;;;13.10;66.00;;;;;;4790512;30;20059;-77
2022/12/02 09:10:25;;;;;;;22.13;12.98;;;13.10;66.00;;;;;;4791340;30;20047;-76
2022/12/02 09:12:52;;;;;;;23.35;10.82;;;13.10;66.10;;;;;;4778873;30;20051;-76
2022/12/02 09:15:19;;;;;;;19.90;10.80;;;13.00;66.10;;;;;;4773895;30;20135;-77
2022/12/02 09:17:45;;;;;;;23.42;12.25;;;13.10;66.20;;;;;;4773869;30;20040;-76
2022/12/02 09:20:11;;;;;;;22.13;10.63;;;13.10;66.30;;;;;;4773446;30;20909;-78
2022/12/02 09:22:37;;;;;;;26.00;12.35;;;13.00;66.20;;;;;;4784080;29;20371;-76
2022/12/02 09:25:03;;;;;;;20.98;11.32;;;13.00;66.30;;;;;;4775551;30;20055;-75
2022/12/02 09:27:29;;;;;;;20.90;10.95;;;13.00;66.30;;;;;;4791381;30;20112;-77
2022/12/02 09:29:55;;;;;;;20.08;11.65;;;13.00;66.30;;;;;;4791274;29;20067;-74
2022/12/02 09:32:21;;;;;;;19.80;11.40;;;13.00;66.40;;;;;;4766651;30;20056;-76
2022/12/02 09:34:46;;;;;;;20.67;11.20;;;13.00;66.40;;;;;;4773002;30;20615;-76
2022/12/02 09:37:12;;;;;;;15.52;10.23;;;13.00;66.50;;;;;;4772937;30;20087;-76
2022/12/02 09:39:38;;;;;;;19.48;11.15;;;13.00;66.50;;;;;;4773770;30;20055;-77
2022/12/02 09:42:05;;;;;;;22.50;11.00;;;13.00;66.60;;;;;;4778926;30;20085;-76
2022/12/02 09:44:31;;;;;;;18.85;11.10;;;12.90;66.60;;;;;;4791336;30;20066;-74
2022/12/02 09:46:58;;;;;;;20.25;10.43;;;12.90;66.60;;;;;;4790545;29;20059;-76
2022/12/02 09:49:24;;;;;;;21.05;10.45;;;12.90;66.60;;;;;;4787848;30;20531;-75
2022/12/02 09:51:52;;;;;;;23.52;10.68;;;12.90;66.70;;;;;;4774922;30;20055;-76
2022/12/02 09:54:18;;;;;;;19.10;9.40;;;13.00;66.50;;;;;;4790385;30;20127;-74
2022/12/02 09:56:44;;;;;;;22.02;8.98;;;13.00;66.50;;;;;;4756548;30;20060;-75
2022/12/02 09:59:14;;;;;;;17.83;7.05;;;13.10;66.60;;;;;;4772762;30;20089;-76
2022/12/02 10:01:46;;;;;;;11.18;6.35;;;13.30;66.70;;;;;;4772761;29;20063;-76
2022/12/02 10:04:17;;;;;;;11.77;5.22;;;13.50;66.40;;;;;;4790315;30;20094;-74
2022/12/02 10:06:43;;;;;;;12.85;5.13;;;13.60;66.10;;;;;;4790691;30;20138;-76
2022/12/02 10:09:27;;;;;;;13.68;4.82;;;13.80;65.90;;;;;;4780971;30;20055;-74
2022/12/02 10:11:53;;;;;;;;;;;14.00;65.90;;;;;;4772781;30;20064;-75
2022/12/02 10:14:19;;;;;;;17.60;5.10;;;14.10;65.70;;;;;;4772877;30;19982;-75
2022/12/02 10:16:44;;;;;;;11.05;4.95;;;14.20;65.60;;;;;;4756908;30;20061;-73
2022/12/02 10:19:20;;;;;;;13.02;5.53;;;14.20;65.50;;;;;;4780514;30;20123;-76
2022/12/02 10:21:46;;;;;;;6.20;3.33;;;14.30;66.20;;;;;;4790220;30;20051;-75
2022/12/02 10:24:12;;;;;;;7.90;3.75;;;14.30;65.50;;;;;;4789676;30;20058;-76
2022/12/02 10:26:51;;;;;;;8.05;4.03;;;14.40;65.40;;;;;;4774256;30;20332;-73
2022/12/02 10:29:30;;;;;;;19.83;4.18;;;14.50;65.40;;;;;;4781090;30;20063;-74
2022/12/02 10:32:02;;;;;;;15.57;4.15;;;14.60;65.20;;;;;;4756344;30;20524;-75
2022/12/02 10:34:30;;;;;;;9.48;3.58;;;14.70;65.20;;;;;;4772582;30;20063;-74
2022/12/02 10:36:55;;;;;;;14.02;4.57;;;14.70;65.00;;;;;;4773047;30;20083;-74
2022/12/02 10:39:28;;;;;;;7.13;3.40;;;14.80;64.90;;;;;;4765267;29;20083;-75
2022/12/02 10:42:03;;;;;;;15.02;4.53;;;14.90;64.90;;;;;;4790210;30;20070;-76
2022/12/02 10:44:33;;;;;;;7.60;3.25;;;15.00;64.70;;;;;;4789970;30;20134;-75
2022/12/02 10:47:16;;;;;;;8.93;3.97;;;15.00;64.50;;;;;;4789996;30;20483;-76
2022/12/02 10:50:00;;;;;;;10.80;4.18;;;15.10;63.90;;;;;;4777362;30;20060;-73
2022/12/02 10:52:30;;;;;;;8.75;4.55;;;15.10;63.70;;;;;;4772040;30;20095;-75
2022/12/02 10:54:57;;;;;;;11.85;3.78;;;15.10;63.40;;;;;;4741942;30;20456;-76
2022/12/02 10:57:27;;;;;;;9.55;3.28;;;15.20;63.60;;;;;;4771134;30;20101;-74
2022/12/02 10:59:54;;;;;;;15.55;4.53;;;15.20;63.70;;;;;;4766661;30;20466;-74
2022/12/02 11:02:32;;;;;;;12.95;3.88;;;15.20;63.70;;;;;;4789506;30;20063;-75
2022/12/02 11:05:13;;;;;;;11.32;3.88;;;15.30;64.30;;;;;;4789523;29;20124;-76
2022/12/02 11:07:39;;;;;;;15.57;3.42;;;15.30;63.90;;;;;;4783029;30;20105;-78
2022/12/02 11:10:06;;;;;;;11.68;3.30;;;15.40;64.00;;;;;;4771680;30;20498;-75
2022/12/02 11:12:50;;;;;;;8.45;3.47;;;15.50;64.10;;;;;;4771766;30;20476;-76
2022/12/02 11:15:39;;;;;;;14.48;3.42;;;15.50;64.70;;;;;;4771738;30;20059;-78
2022/12/02 11:18:21;;;;;;;13.18;4.28;;;15.50;64.00;;;;;;4771917;30;20055;-76
2022/12/02 11:20:52;;;;;;;10.27;3.13;;;15.50;64.10;;;;;;4784687;30;20055;-78
2022/12/02 11:23:26;;;;;;;6.95;2.95;;;15.50;64.30;;;;;;4773119;29;20051;-77
2022/12/02 11:25:57;;;;;;;9.48;3.25;;;15.50;64.40;;;;;;4784405;30;20476;-79
2022/12/02 11:28:29;;;;;;;9.15;3.03;;;15.60;64.40;;;;;;4765439;30;20118;-76
2022/12/02 11:31:10;;;;;;;8.07;2.53;;;15.60;64.40;;;;;;4754067;30;20064;-74
2022/12/02 11:33:47;;;;;;;8.27;2.67;;;15.60;64.30;;;;;;4753878;30;20064;-77
2022/12/02 11:36:21;;;;;;;7.80;2.95;;;15.60;64.30;;;;;;4754149;30;20052;-75
2022/12/02 11:38:50;;;;;;;13.45;3.95;;;15.50;64.40;;;;;;4753923;30;20048;-77
2022/12/02 11:41:21;;;;;;;6.15;2.60;;;15.50;64.60;;;;;;4765359;30;20051;-76
2022/12/02 11:43:46;;;;;;;7.95;2.60;;;15.50;64.80;;;;;;4779412;29;20063;-78
2022/12/02 11:46:14;;;;;;;9.38;3.38;;;15.40;65.00;;;;;;4771230;30;20056;-76
2022/12/02 11:48:49;;;;;;;7.80;2.88;;;15.30;65.00;;;;;;4762078;30;20811;-78
2022/12/02 11:51:37;;;;;;;14.20;3.35;;;15.30;65.00;;;;;;4771374;30;20071;-74
2022/12/02 11:54:03;;;;;;;5.68;2.95;;;15.20;65.00;;;;;;4771321;30;20117;-75
2022/12/02 11:56:37;;;;;;;9.40;3.20;;;15.10;65.20;;;;;;4771444;30;20068;-74
2022/12/02 11:59:16;;;;;;;;;;;15.10;65.30;;;;;;4775662;30;20044;-75
2022/12/02 12:01:42;;;;;;;12.40;7.47;;;15.00;64.60;;;;;;4783036;30;20238;-77
2022/12/02 12:04:31;;;;;;;15.02;8.43;;;14.90;64.60;;;;;;4755958;30;20068;-79
2022/12/02 12:06:58;;;;;;;14.32;8.18;;;14.90;63.10;;;;;;4752534;30;20127;-76
2022/12/02 12:09:25;;;;;;;19.15;10.45;;;14.80;62.80;;;;;;4754090;30;20094;-76
2022/12/02 12:12:11;;;;;;;15.10;9.35;;;14.70;62.30;;;;;;4769515;30;20055;-72
2022/12/02 12:15:03;;;;;;;15.38;10.40;;;14.70;62.00;;;;;;4776917;30;20069;-75
2022/12/02 12:17:38;;;;;;;16.73;11.13;;;14.60;62.30;;;;;;4792469;30;20078;-76
2022/12/02 12:20:25;;;;;;;19.77;12.80;;;14.60;62.10;;;;;;4792200;30;20120;-76
2022/12/02 12:22:51;;;;;;;21.85;13.10;;;14.50;61.40;;;;;;4782541;29;20384;-77
2022/12/02 12:25:42;;;;;;;27.27;18.13;;;14.50;62.20;;;;;;4776480;30;20052;-78
2022/12/02 12:28:23;;;;;;;25.17;16.60;;;14.50;61.80;;;;;;4774106;30;20059;-76
2022/12/02 12:30:49;;;;;;;21.73;16.27;;;14.40;61.30;;;;;;4774325;30;20064;-76
2022/12/02 12:33:16;;;;;;;24.02;16.13;;;14.30;60.80;;;;;;4774136;30;20055;-77
2022/12/02 12:35:42;;;;;;;21.58;16.17;;;14.30;60.10;;;;;;4774244;30;20460;-77
2022/12/02 12:38:07;;;;;;;21.85;15.43;;;14.20;59.70;;;;;;4764405;30;20043;-77
2022/12/02 12:40:33;;;;;;;21.92;16.38;;;14.20;59.60;;;;;;4792642;30;20119;-75
2022/12/02 12:42:59;;;;;;;21.40;15.75;;;14.10;59.60;;;;;;4776586;30;20115;-75
2022/12/02 12:45:25;;;;;;;21.95;15.30;;;14.10;59.70;;;;;;4791946;30;20051;-75
2022/12/02 12:47:50;;;;;;;20.30;16.30;;;14.10;59.90;;;;;;4776265;30;20105;-75
2022/12/02 12:50:16;;;;;;;17.73;14.63;;;14.00;60.10;;;;;;4792139;30;20063;-76
2022/12/02 12:52:42;;;;;;;21.50;15.38;;;14.00;60.30;;;;;;4792039;30;20058;-75
2022/12/02 12:55:08;;;;;;;18.70;14.60;;;14.00;60.60;;;;;;4781185;30;20087;-79
2022/12/02 12:57:33;;;;;;;18.83;15.02;;;13.90;60.80;;;;;;4773767;30;20047;-76
2022/12/02 12:59:59;;;;;;;18.67;14.85;;;13.90;61.10;;;;;;4773961;30;20060;-76
2022/12/02 13:02:25;;;;;;;18.17;14.57;;;13.80;61.30;;;;;;4774084;30;20055;-74
2022/12/02 13:04:50;;;;;;;20.42;14.82;;;13.90;61.60;;;;;;4774042;30;20165;-75
2022/12/02 13:07:16;;;;;;;19.45;14.95;;;13.80;61.80;;;;;;4774458;30;20115;-76
2022/12/02 13:09:42;;;;;;;19.05;14.90;;;13.80;62.10;;;;;;4773782;30;20068;-76
2022/12/02 13:12:08;;;;;;;20.73;15.00;;;13.80;62.30;;;;;;4774309;30;20429;-75
2022/12/02 13:14:33;;;;;;;17.65;13.88;;;13.80;62.60;;;;;;4791590;29;20055;-77
2022/12/02 13:16:59;;;;;;;19.63;14.40;;;13.80;62.80;;;;;;4792224;30;20508;-76
2022/12/02 13:19:25;;;;;;;17.33;13.60;;;13.80;63.00;;;;;;4790733;30;20066;-76
2022/12/02 13:21:50;;;;;;;19.45;13.98;;;13.70;63.10;;;;;;4775893;30;20055;-74
2022/12/02 13:24:16;;;;;;;17.27;13.43;;;13.70;63.20;;;;;;4791748;30;20047;-77
2022/12/02 13:26:42;;;;;;;15.98;13.88;;;13.70;63.30;;;;;;4791247;30;20337;-75
2022/12/02 13:29:07;;;;;;;15.20;12.80;;;13.70;63.40;;;;;;4791531;29;20062;-78
2022/12/02 13:31:33;;;;;;;16.77;12.98;;;13.70;63.50;;;;;;4789734;30;20055;-75
2022/12/02 13:33:59;;;;;;;16.30;12.07;;;13.70;63.60;;;;;;4791247;29;20051;-76
2022/12/02 13:36:25;;;;;;;18.48;13.50;;;13.70;63.70;;;;;;4791329;30;20055;-75
2022/12/02 13:38:50;;;;;;;16.83;12.68;;;13.70;63.80;;;;;;4791400;29;20462;-76
2022/12/02 13:41:16;;;;;;;18.45;12.40;;;13.60;63.90;;;;;;4790820;30;20051;-77
2022/12/02 13:43:42;;;;;;;14.60;12.45;;;13.60;63.90;;;;;;4775501;30;20066;-78
2022/12/02 13:46:07;;;;;;;19.98;13.07;;;13.60;64.10;;;;;;4790248;29;20062;-72
2022/12/02 13:48:33;;;;;;;24.23;14.90;;;13.60;63.70;;;;;;4791039;30;20086;-71
2022/12/02 13:51:01;;;;;;;23.77;14.10;;;13.70;61.90;;;;;;4775839;30;20126;-75
2022/12/02 13:53:27;;;;;;;26.95;14.30;;;13.70;60.40;;;;;;4773225;30;20062;-73
2022/12/02 13:55:53;;;;;;;30.58;14.60;;;13.60;58.90;;;;;;4773605;30;20062;-73
2022/12/02 13:58:18;;;;;;;22.90;13.70;;;13.60;57.80;;;;;;4773030;30;20060;-74
2022/12/02 14:00:44;;;;;;;28.02;15.52;;;13.60;57.00;;;;;;4772950;30;20503;-77
2022/12/02 14:03:10;;;;;;;22.00;14.23;;;13.50;57.20;;;;;;4774504;30;20055;-76
2022/12/02 14:06:10;;;;;;;27.15;14.10;;;13.50;57.70;;;;;;4772643;30;20066;-78
2022/12/02 14:08:54;;;;;;;27.30;13.25;;;13.40;57.50;;;;;;4756813;30;20118;-76
2022/12/02 14:11:20;;;;;;;23.65;12.25;;;13.50;58.30;;;;;;4780722;30;20051;-73
2022/12/02 14:13:46;;;;;;;22.67;12.30;;;13.70;58.70;;;;;;4790694;30;20036;-77
2022/12/02 14:16:11;;;;;;;20.55;10.63;;;13.90;59.30;;;;;;4789420;30;20082;-77
2022/12/02 14:18:37;;;;;;;15.77;9.75;;;14.00;59.50;;;;;;4790225;30;20047;-74
2022/12/02 14:21:03;;;;;;;16.17;8.68;;;14.10;59.80;;;;;;4773251;30;20423;-72
2022/12/02 14:23:29;;;;;;;21.10;8.38;;;14.30;60.00;;;;;;4787883;30;20043;-73
2022/12/02 14:25:54;;;;;;;15.15;8.43;;;14.40;60.20;;;;;;4773754;30;20341;-75
2022/12/02 14:28:20;;;;;;;17.63;8.07;;;14.50;60.40;;;;;;4759574;30;20177;-73
2022/12/02 14:30:46;;;;;;;20.00;8.32;;;14.50;61.30;;;;;;4773839;30;20059;-72
2022/12/02 14:33:12;;;;;;;19.67;7.03;;;14.50;60.90;;;;;;4771594;30;20056;-74
2022/12/02 14:35:37;;;;;;;15.73;6.90;;;14.50;61.20;;;;;;4756716;30;20062;-74
2022/12/02 14:38:03;;;;;;;14.43;6.60;;;14.60;61.60;;;;;;4756547;30;20051;-72
2022/12/02 14:40:30;;;;;;;22.88;6.93;;;14.60;61.80;;;;;;4772944;30;20051;-73
2022/12/02 14:42:56;;;;;;;22.58;6.90;;;14.70;61.90;;;;;;4757379;30;20047;-76
2022/12/02 14:45:22;;;;;;;25.73;6.68;;;14.80;62.00;;;;;;4771989;30;20138;-75
2022/12/02 14:47:48;;;;;;;30.77;7.60;;;14.90;61.90;;;;;;4771932;30;20363;-74
2022/12/02 14:50:14;;;;;;;32.63;8.40;;;15.00;62.10;;;;;;4766064;30;20134;-75
2022/12/02 14:52:39;;;;;;;29.17;7.55;;;15.10;62.00;;;;;;4774303;30;20372;-76
2022/12/02 14:55:05;;;;;;;27.42;7.50;;;15.20;61.80;;;;;;4790126;30;20043;-75
2022/12/02 14:57:31;;;;;;;20.00;7.93;;;15.20;61.80;;;;;;4773942;30;20374;-77